Time;durP1;ratioP1;P1;durP2;ratioP2;P2;SDS_P1;SDS_P2;PMS_P1;PMS_P2;Temp;Humidity;BMP_temperature;BMP_pressure;BME280_temperature;BME280_humidity;BME280_pressure;Samples;Min_cycle;Max_cycle;Signal;HPM_P1;HPM_P2
2022/08/05 00:00:57;;;;;;;11.23;3.90;;;;;;;20.17;100.00;101223.97;6296184;28;20052;-75
2022/08/05 00:03:59;;;;;;;8.93;4.00;;;;;;;20.21;100.00;101219.19;6296060;28;20040;-75
2022/08/05 00:07:00;;;;;;;12.05;3.72;;;;;;;20.27;100.00;101216.00;6295943;28;20048;-75
2022/08/05 00:10:03;;;;;;;8.68;4.13;;;;;;;20.27;100.00;101206.19;6296342;28;20048;-75
2022/08/05 00:13:04;;;;;;;7.95;3.80;;;;;;;20.24;100.00;101218.94;6298864;28;20407;-75
2022/08/05 00:16:08;;;;;;;10.77;4.32;;;;;;;20.27;100.00;101226.69;6301097;28;20052;-74
2022/08/05 00:19:09;;;;;;;11.25;4.05;;;;;;;20.37;100.00;101240.91;6301242;28;20059;-75
2022/08/05 00:22:11;;;;;;;11.10;4.25;;;;;;;20.15;100.00;101231.25;6301152;28;20045;-75
2022/08/05 00:25:13;;;;;;;11.90;4.13;;;;;;;20.19;100.00;101231.84;6300870;28;20075;-74
2022/08/05 00:28:16;;;;;;;9.35;4.25;;;;;;;20.25;100.00;101223.28;6301021;28;20044;-74
2022/08/05 00:31:18;;;;;;;7.93;4.05;;;;;;;20.25;100.00;101220.63;6300608;28;20048;-74
2022/08/05 00:34:19;;;;;;;10.32;4.53;;;;;;;20.19;100.00;101210.47;6300357;28;20044;-74
2022/08/05 00:37:20;;;;;;;12.38;4.40;;;;;;;20.24;100.00;101221.59;6300774;28;20518;-75
2022/08/05 00:40:26;;;;;;;10.40;4.32;;;;;;;20.29;100.00;101211.38;6300317;28;20529;-74
2022/08/05 00:43:27;;;;;;;11.77;3.85;;;;;;;20.24;100.00;101209.09;6300509;28;20048;-74
2022/08/05 00:46:29;;;;;;;12.15;4.00;;;;;;;20.15;100.00;101199.22;6300359;28;20057;-75
2022/08/05 00:49:30;;;;;;;12.63;3.92;;;;;;;20.18;100.00;101185.63;6300135;28;20484;-74
2022/08/05 00:52:32;;;;;;;11.32;4.00;;;;;;;20.13;100.00;101187.00;6300119;28;20045;-75
2022/08/05 00:55:35;;;;;;;8.82;3.22;;;;;;;20.22;100.00;101188.88;6300141;28;20644;-74
2022/08/05 00:58:36;;;;;;;6.15;3.55;;;;;;;20.19;100.00;101178.47;6300338;28;20439;-75
2022/08/05 01:01:39;;;;;;;13.90;4.60;;;;;;;20.04;100.00;101169.97;6300421;28;20049;-75
2022/08/05 01:04:40;;;;;;;5.80;3.03;;;;;;;20.00;100.00;101152.53;6299855;28;20442;-75
2022/08/05 01:07:42;;;;;;;7.10;3.53;;;;;;;20.07;100.00;101142.16;6299973;28;20044;-75
2022/08/05 01:10:50;;;;;;;8.35;3.15;;;;;;;20.07;100.00;101143.00;6299800;28;20053;-75
2022/08/05 01:13:59;;;;;;;7.77;3.67;;;;;;;20.02;100.00;101137.22;6299724;28;20044;-74
2022/08/05 01:17:06;;;;;;;5.07;3.13;;;;;;;19.99;100.00;101149.03;6300001;28;20654;-74
2022/08/05 01:20:29;;;;;;;8.02;2.55;;;;;;;20.05;100.00;101152.13;6299585;28;20048;-74
2022/08/05 01:23:44;;;;;;;8.13;2.80;;;;;;;20.06;100.00;101151.16;6299478;28;20534;-74
2022/08/05 01:27:00;;;;;;;8.48;2.67;;;;;;;20.14;100.00;101146.00;6299670;28;20484;-74
2022/08/05 01:30:05;;;;;;;8.10;3.30;;;;;;;20.13;100.00;101145.16;6299333;28;20045;-75
2022/08/05 01:33:09;;;;;;;9.88;3.75;;;;;;;20.06;100.00;101135.13;6299202;28;20052;-75
2022/08/05 01:36:15;;;;;;;7.35;3.72;;;;;;;19.91;100.00;101129.31;6299244;28;20060;-74
2022/08/05 01:39:18;;;;;;;11.05;3.72;;;;;;;19.76;100.00;101129.66;6299487;28;20056;-74
2022/08/05 01:42:20;;;;;;;5.35;3.03;;;;;;;19.81;100.00;101113.28;6299174;28;20060;-74
2022/08/05 01:45:24;;;;;;;8.00;3.55;;;;;;;19.80;100.00;101084.88;6298788;28;20076;-73
2022/08/05 01:48:29;;;;;;;8.05;3.08;;;;;;;19.79;100.00;101099.19;6299100;28;20053;-74
2022/08/05 01:51:35;;;;;;;10.15;3.47;;;;;;;19.87;100.00;101117.22;6298973;28;20063;-74
2022/08/05 01:54:41;;;;;;;6.97;3.33;;;;;;;19.85;100.00;101077.34;6298700;28;20052;-74
2022/08/05 01:57:46;;;;;;;5.65;3.08;;;;;;;19.86;100.00;101062.19;6298864;28;20057;-74
2022/08/05 02:00:51;;;;;;;9.45;3.05;;;;;;;19.73;100.00;101036.59;6298527;28;20052;-73
2022/08/05 02:03:55;;;;;;;8.70;3.65;;;;;;;19.55;100.00;101010.66;6298580;28;20075;-73
2022/08/05 02:06:57;;;;;;;7.25;2.97;;;;;;;19.48;100.00;100991.66;6298654;28;20048;-74
2022/08/05 02:09:59;;;;;;;9.80;3.65;;;;;;;19.36;100.00;100993.59;6298281;28;20056;-73
2022/08/05 02:13:07;;;;;;;7.60;2.88;;;;;;;19.33;100.00;101003.66;6298639;28;20415;-74
2022/08/05 02:16:18;;;;;;;5.23;3.20;;;;;;;19.33;100.00;101025.81;6298145;28;20049;-73
2022/08/05 02:19:30;;;;;;;7.18;3.30;;;;;;;19.11;100.00;101057.94;6298575;28;20048;-73
2022/08/05 02:22:38;;;;;;;6.38;3.17;;;;;;;18.93;100.00;101079.81;6298145;28;20074;-73
2022/08/05 02:25:43;;;;;;;8.10;3.55;;;;;;;19.10;100.00;101115.69;6298134;28;20055;-73
2022/08/05 02:28:47;;;;;;;6.28;3.10;;;;;;;19.15;100.00;101132.16;6297863;28;20057;-73
2022/08/05 02:31:53;;;;;;;14.25;3.45;;;;;;;19.06;100.00;101137.41;6297885;28;20055;-73
2022/08/05 02:34:56;;;;;;;5.68;3.22;;;;;;;18.99;100.00;101140.56;6297414;28;20044;-73
2022/08/05 02:37:59;;;;;;;4.90;2.72;;;;;;;19.00;100.00;101133.44;6298599;28;20053;-73
2022/08/05 02:41:02;;;;;;;9.80;3.70;;;;;;;18.94;100.00;101145.44;6297678;28;20052;-74
2022/08/05 02:44:07;;;;;;;7.78;3.83;;;;;;;18.88;100.00;101145.09;6297711;28;20052;-74
2022/08/05 02:47:11;;;;;;;10.57;4.45;;;;;;;18.93;100.00;101143.72;6300255;28;20052;-74
2022/08/05 02:50:14;;;;;;;8.63;2.85;;;;;;;18.89;100.00;101144.09;6297459;28;20060;-74
2022/08/05 02:53:17;;;;;;;4.53;2.88;;;;;;;18.93;100.00;101138.41;6297620;28;20049;-74
2022/08/05 02:56:19;;;;;;;6.72;3.60;;;;;;;18.86;100.00;101139.06;6282172;28;20090;-74
2022/08/05 02:59:25;;;;;;;8.07;3.75;;;;;;;18.89;100.00;101144.09;6272504;28;20052;-74
2022/08/05 03:02:31;;;;;;;7.32;3.03;;;;;;;18.91;100.00;101132.38;6272545;28;20048;-73
2022/08/05 03:05:33;;;;;;;5.63;3.13;;;;;;;18.90;100.00;101133.34;6272212;28;20056;-74
2022/08/05 03:08:35;;;;;;;8.40;3.42;;;;;;;18.94;100.00;101131.25;6272480;28;20060;-73
2022/08/05 03:11:37;;;;;;;12.90;4.00;;;;;;;18.95;100.00;101139.13;6272130;28;20045;-74
2022/08/05 03:14:38;;;;;;;7.97;3.60;;;;;;;18.92;100.00;101136.72;6272204;28;20045;-75
2022/08/05 03:17:41;;;;;;;5.65;3.00;;;;;;;18.94;100.00;101148.09;6272138;28;20056;-73
2022/08/05 03:20:42;;;;;;;14.07;3.78;;;;;;;18.91;100.00;101153.66;6272130;28;20056;-73
2022/08/05 03:23:44;;;;;;;6.50;3.17;;;;;;;18.91;100.00;101148.34;6271970;28;20507;-74
2022/08/05 03:26:46;;;;;;;8.25;3.33;;;;;;;18.83;100.00;101142.78;6272123;28;20390;-74
2022/08/05 03:29:47;;;;;;;7.88;2.97;;;;;;;18.90;100.00;101153.81;6289510;28;20074;-74
2022/08/05 03:32:50;;;;;;;5.10;2.70;;;;;;;18.82;100.00;101153.59;6311921;28;20055;-74
2022/08/05 03:35:52;;;;;;;4.40;2.67;;;;;;;18.64;100.00;101155.88;6311060;28;20525;-74
2022/08/05 03:38:53;;;;;;;6.03;3.20;;;;;;;18.64;100.00;101150.56;6306651;28;20052;-74
2022/08/05 03:41:55;;;;;;;6.63;3.13;;;;;;;18.69;100.00;101143.91;6321749;28;20059;-74
2022/08/05 03:44:56;;;;;;;7.93;3.00;;;;;;;18.69;100.00;101151.91;6321243;28;20045;-74
2022/08/05 03:47:59;;;;;;;5.93;2.25;;;;;;;18.62;100.00;101164.00;6320903;28;20052;-74
2022/08/05 03:51:06;;;;;;;5.38;2.47;;;;;;;18.56;100.00;101179.59;6321241;28;20101;-74
2022/08/05 03:54:14;;;;;;;4.35;2.35;;;;;;;18.48;100.00;101175.72;6321504;28;20048;-74
2022/08/05 03:57:18;;;;;;;5.65;2.60;;;;;;;18.40;100.00;101169.34;6321402;28;20044;-74
2022/08/05 04:00:25;;;;;;;3.95;1.98;;;;;;;18.31;100.00;101165.59;6321214;28;20054;-74
2022/08/05 04:03:30;;;;;;;3.92;2.22;;;;;;;18.35;100.00;101172.38;6313087;28;20048;-74
2022/08/05 04:06:33;;;;;;;3.15;2.05;;;;;;;18.46;100.00;101174.19;6320071;28;20047;-74
2022/08/05 04:09:35;;;;;;;2.55;1.92;;;;;;;18.49;100.00;101169.47;6321186;28;20047;-74
2022/08/05 04:12:37;;;;;;;4.05;1.88;;;;;;;18.34;100.00;101178.66;6304180;28;20060;-75
2022/08/05 04:15:39;;;;;;;3.95;2.25;;;;;;;18.30;100.00;101179.00;6294301;28;20044;-74
2022/08/05 04:18:45;;;;;;;5.35;2.50;;;;;;;18.29;100.00;101187.97;6294646;28;20408;-74
2022/08/05 04:21:46;;;;;;;3.03;1.90;;;;;;;18.21;100.00;101180.56;6291911;28;20051;-73
2022/08/05 04:24:48;;;;;;;5.03;2.17;;;;;;;18.33;100.00;101176.13;6294177;28;20048;-73
2022/08/05 04:27:49;;;;;;;3.47;2.10;;;;;;;18.35;100.00;101182.16;6294936;28;20488;-73
2022/08/05 04:30:50;;;;;;;5.55;1.50;;;;;;;18.43;100.00;101185.91;6294483;28;20048;-74
2022/08/05 04:33:53;;;;;;;2.30;1.33;;;;;;;18.38;100.00;101182.75;6294152;28;20507;-73
2022/08/05 04:36:55;;;;;;;4.60;1.67;;;;;;;18.34;100.00;101186.63;6295568;28;20044;-74
2022/08/05 04:39:56;;;;;;;2.85;1.58;;;;;;;18.34;100.00;101196.44;6295486;28;20045;-74
2022/08/05 04:42:57;;;;;;;2.83;1.90;;;;;;;18.33;100.00;101197.41;6295432;28;20477;-74
2022/08/05 04:45:59;;;;;;;4.20;1.88;;;;;;;18.40;100.00;101209.28;6295516;28;20051;-74
2022/08/05 04:49:02;;;;;;;3.65;1.58;;;;;;;18.41;100.00;101211.81;6295492;28;20053;-73
2022/08/05 04:52:03;;;;;;;5.72;1.98;;;;;;;18.35;100.00;101192.78;6295352;28;20633;-74
2022/08/05 04:55:05;;;;;;;6.13;1.50;;;;;;;18.44;100.00;101202.72;6294800;28;20048;-74
2022/08/05 04:58:09;;;;;;;4.75;1.35;;;;;;;18.43;100.00;101215.19;6293561;28;20052;-74
2022/08/05 05:01:10;;;;;;;4.68;2.08;;;;;;;18.30;100.00;101227.75;6300269;28;20048;-73
2022/08/05 05:04:13;;;;;;;1.92;1.40;;;;;;;18.35;100.00;101225.59;6298980;28;20646;-73
2022/08/05 05:07:14;;;;;;;6.50;1.67;;;;;;;18.32;100.00;101228.50;6299395;28;20040;-72
2022/08/05 05:10:16;;;;;;;1.90;1.42;;;;;;;18.31;100.00;101236.59;6299627;28;20424;-72
2022/08/05 05:13:18;;;;;;;2.95;1.65;;;;;;;18.17;100.00;101235.88;6298431;28;20055;-73
2022/08/05 05:16:19;;;;;;;3.05;1.33;;;;;;;18.09;100.00;101222.31;6297958;28;20066;-73
2022/08/05 05:19:22;;;;;;;4.18;1.80;;;;;;;17.98;100.00;101208.97;6295468;28;20055;-72
2022/08/05 05:22:24;;;;;;;5.53;1.75;;;;;;;17.93;100.00;101214.63;6296378;28;20055;-72
2022/08/05 05:25:25;;;;;;;5.25;1.75;;;;;;;17.85;100.00;101221.50;6298028;28;20040;-72
2022/08/05 05:28:27;;;;;;;4.80;1.92;;;;;;;17.82;100.00;101198.69;6297967;28;20416;-72
2022/08/05 05:31:28;;;;;;;2.75;1.88;;;;;;;17.78;100.00;101207.84;6297722;28;20411;-72
2022/08/05 05:34:30;;;;;;;3.10;1.70;;;;;;;17.80;100.00;101203.25;6297968;28;20052;-72
2022/08/05 05:37:32;;;;;;;3.90;1.75;;;;;;;17.72;100.00;101201.16;6297800;28;20048;-72
2022/08/05 05:40:33;;;;;;;4.00;2.08;;;;;;;17.72;100.00;101185.22;6299096;28;20071;-71
2022/08/05 05:43:35;;;;;;;6.47;2.15;;;;;;;17.70;100.00;101171.16;6299049;28;20051;-72
2022/08/05 05:46:36;;;;;;;3.95;2.15;;;;;;;17.75;100.00;101178.81;6299147;28;20048;-72
2022/08/05 05:49:39;;;;;;;5.32;2.60;;;;;;;17.80;100.00;101191.78;6299483;28;20055;-71
2022/08/05 05:52:40;;;;;;;3.03;2.08;;;;;;;17.69;100.00;101187.25;6299166;28;20055;-72
2022/08/05 05:55:41;;;;;;;4.63;2.17;;;;;;;17.70;100.00;101179.16;6298674;28;20044;-71
2022/08/05 05:58:43;;;;;;;3.85;2.10;;;;;;;17.75;100.00;101176.16;6299279;28;20059;-71
2022/08/05 06:01:44;;;;;;;3.53;2.08;;;;;;;17.63;100.00;101182.41;6298760;28;20135;-72
2022/08/05 06:04:47;;;;;;;5.35;2.28;;;;;;;17.60;100.00;101179.97;6298591;28;20495;-71
2022/08/05 06:07:49;;;;;;;2.88;2.15;;;;;;;17.66;100.00;101174.19;6298990;28;20059;-71
2022/08/05 06:10:50;;;;;;;3.25;1.77;;;;;;;17.58;100.00;101174.78;6297430;28;20055;-71
2022/08/05 06:13:51;;;;;;;6.63;1.98;;;;;;;17.49;100.00;101175.47;6298392;28;20055;-71
2022/08/05 06:16:53;;;;;;;7.55;2.10;;;;;;;17.48;100.00;101197.69;6298348;28;20407;-71
2022/08/05 06:19:56;;;;;;;7.32;2.40;;;;;;;17.55;100.00;101201.59;6298311;28;20060;-72
2022/08/05 06:22:58;;;;;;;3.35;2.35;;;;;;;17.59;100.00;101211.03;6298158;28;20049;-71
2022/08/05 06:25:59;;;;;;;5.68;2.15;;;;;;;17.61;100.00;101200.28;6298134;28;20040;-71
2022/08/05 06:29:01;;;;;;;2.88;2.35;;;;;;;17.67;100.00;101200.66;6298120;28;20514;-71
2022/08/05 06:32:02;;;;;;;8.23;2.90;;;;;;;17.52;100.00;101217.75;6298208;28;20060;-71
2022/08/05 06:35:07;;;;;;;4.38;2.78;;;;;;;17.60;100.00;101212.72;6297667;28;20408;-71
2022/08/05 06:38:08;;;;;;;6.63;2.42;;;;;;;17.48;100.00;101218.94;6298113;28;20059;-71
2022/08/05 06:41:09;;;;;;;3.25;2.45;;;;;;;17.45;100.00;101230.66;6297567;28;20412;-72
2022/08/05 06:44:11;;;;;;;4.28;2.25;;;;;;;17.43;100.00;101237.03;6297555;28;20049;-71
2022/08/05 06:47:12;;;;;;;4.20;2.63;;;;;;;17.46;100.00;101255.44;6297865;28;20045;-71
2022/08/05 06:50:15;;;;;;;7.72;2.38;;;;;;;17.45;100.00;101259.91;6297500;28;20064;-72
2022/08/05 06:53:16;;;;;;;2.67;2.15;;;;;;;17.39;100.00;101270.97;6297850;28;20059;-72
2022/08/05 06:56:18;;;;;;;5.47;2.50;;;;;;;17.46;100.00;101285.50;6297205;28;20625;-71
2022/08/05 06:59:19;;;;;;;5.30;2.40;;;;;;;17.43;100.00;101284.88;6297771;28;20052;-72
2022/08/05 07:02:21;;;;;;;8.55;2.28;;;;;;;17.36;100.00;101286.31;6297175;28;20048;-72
2022/08/05 07:05:23;;;;;;;4.43;2.25;;;;;;;17.46;100.00;101289.97;6289128;28;20040;-79
2022/08/05 07:08:26;;;;;;;6.35;2.17;;;;;;;17.40;100.00;101280.66;6294650;28;20048;-73
2022/08/05 07:11:29;;;;;;;3.63;2.20;;;;;;;17.45;100.00;101256.41;6319564;28;20514;-73
2022/08/05 07:17:50;;;;;;;4.15;2.50;;;;;;;17.53;100.00;101187.56;6320863;28;20499;-73
2022/08/05 07:20:52;;;;;;;5.03;2.70;;;;;;;17.65;100.00;101201.72;6322133;28;20051;-77
2022/08/05 07:23:54;;;;;;;7.85;2.67;;;;;;;17.77;100.00;101248.69;6321962;28;20261;-74
2022/08/05 07:26:55;;;;;;;5.70;2.75;;;;;;;17.85;100.00;101266.72;6304761;28;20581;-74
2022/08/05 07:29:57;;;;;;;4.43;2.22;;;;;;;17.87;100.00;101255.00;6302099;28;20520;-74
2022/08/05 07:32:58;;;;;;;5.72;2.63;;;;;;;17.93;100.00;101251.03;6316163;28;20048;-73
2022/08/05 07:36:01;;;;;;;4.88;2.38;;;;;;;17.89;100.00;101266.34;6310284;28;20048;-74
2022/08/05 07:39:05;;;;;;;3.95;2.00;;;;;;;17.88;100.00;101264.66;6296759;28;20048;-75
2022/08/05 07:42:07;;;;;;;3.40;2.20;;;;;;;17.89;100.00;101270.84;6296576;28;20076;-75
2022/08/05 07:45:09;;;;;;;6.75;2.03;;;;;;;17.92;100.00;101260.81;6280233;28;20052;-74
2022/08/05 07:48:10;;;;;;;4.20;2.33;;;;;;;17.90;100.00;101249.47;6271681;28;20045;-74
2022/08/05 07:51:14;;;;;;;2.85;2.15;;;;;;;17.87;100.00;101248.84;6271821;28;20045;-74
2022/08/05 07:54:16;;;;;;;5.10;1.95;;;;;;;17.85;100.00;101245.44;6271407;28;20052;-73
2022/08/05 07:57:17;;;;;;;4.03;2.15;;;;;;;17.85;100.00;101243.66;6271564;28;20045;-74
2022/08/05 08:00:19;;;;;;;6.97;2.95;;;;;;;17.75;100.00;101242.63;6291181;28;20389;-74
2022/08/05 08:03:20;;;;;;;5.47;3.03;;;;;;;17.73;100.00;101252.50;6276745;28;20419;-74
2022/08/05 08:06:22;;;;;;;2.72;2.13;;;;;;;17.81;100.00;101263.47;6271195;28;20045;-73
2022/08/05 08:09:24;;;;;;;3.22;2.30;;;;;;;17.72;100.00;101264.97;6279233;28;20044;-74
2022/08/05 08:12:25;;;;;;;3.45;2.10;;;;;;;17.81;100.00;101260.81;6296257;28;20664;-73
2022/08/05 08:15:27;;;;;;;3.15;2.22;;;;;;;17.82;100.00;101272.28;6295653;28;20044;-79
2022/08/05 08:18:28;;;;;;;7.53;2.88;;;;;;;17.78;100.00;101260.19;6296448;28;20051;-72
2022/08/05 08:21:31;;;;;;;6.63;2.65;;;;;;;17.66;100.00;101245.94;6291454;28;20063;-74
2022/08/05 08:24:33;;;;;;;5.13;2.25;;;;;;;17.66;100.00;101249.47;6284940;28;20412;-73
2022/08/05 08:27:34;;;;;;;3.45;2.38;;;;;;;17.54;100.00;101254.88;6293962;28;20051;-73
2022/08/05 08:30:36;;;;;;;3.65;2.30;;;;;;;17.50;100.00;101263.06;6293964;28;20412;-73
2022/08/05 08:33:37;;;;;;;4.07;2.25;;;;;;;17.61;100.00;101264.91;6305366;28;20047;-74
2022/08/05 08:36:40;;;;;;;3.88;2.72;;;;;;;17.52;100.00;101267.41;6314830;28;20523;-74
2022/08/05 08:39:41;;;;;;;6.38;2.40;;;;;;;17.58;100.00;101259.84;6318132;28;20056;-74
2022/08/05 08:42:48;;;;;;;6.43;3.05;;;;;;;17.55;100.00;101265.38;6315989;28;20040;-74
2022/08/05 08:45:52;;;;;;;5.88;2.40;;;;;;;17.60;100.00;101257.06;6303570;28;20041;-73
2022/08/05 08:48:54;;;;;;;6.75;2.72;;;;;;;17.78;100.00;101269.00;6308270;28;20075;-78
2022/08/05 08:52:01;;;;;;;6.30;2.40;;;;;;;17.72;100.00;101269.44;6302069;28;20055;-74
2022/08/05 08:55:03;;;;;;;8.80;2.88;;;;;;;17.65;100.00;101255.75;6300175;28;20045;-75
2022/08/05 08:58:06;;;;;;;4.80;3.20;;;;;;;17.73;100.00;101266.69;6291573;28;20049;-74
2022/08/05 09:01:08;;;;;;;7.07;3.03;;;;;;;17.74;100.00;101267.53;6297325;28;20067;-74
2022/08/05 09:04:09;;;;;;;4.82;2.85;;;;;;;17.77;100.00;101274.44;6300205;28;20507;-75
2022/08/05 09:07:13;;;;;;;6.85;3.83;;;;;;;17.78;100.00;101273.47;6300103;28;20052;-74
2022/08/05 09:10:14;;;;;;;4.40;3.25;;;;;;;17.76;100.00;101286.88;6299638;28;20059;-74
2022/08/05 09:13:16;;;;;;;4.57;2.53;;;;;;;17.66;100.00;101285.81;6300155;28;20090;-75
2022/08/05 09:16:18;;;;;;;8.77;3.60;;;;;;;17.69;100.00;101294.44;6299734;28;20446;-76
2022/08/05 09:19:19;;;;;;;7.00;2.70;;;;;;;17.72;100.00;101304.00;6299973;28;20059;-75
2022/08/05 09:22:22;;;;;;;4.05;2.47;;;;;;;17.83;100.00;101296.09;6299554;28;20041;-76
2022/08/05 09:25:23;;;;;;;7.32;3.25;;;;;;;17.74;100.00;101302.94;6299768;28;20056;-74
2022/08/05 09:28:27;;;;;;;4.53;2.35;;;;;;;17.73;100.00;101295.94;6299699;28;20060;-75
2022/08/05 09:31:28;;;;;;;4.30;1.90;;;;;;;17.59;100.00;101277.47;6299340;28;20075;-76
2022/08/05 09:34:57;;;;;;;4.93;2.88;;;;;;;17.69;100.00;101278.47;6298223;28;20435;-75
2022/08/05 09:38:00;;;;;;;3.22;1.98;;;;;;;17.75;100.00;101293.16;6294499;28;20522;-76
2022/08/05 09:41:06;;;;;;;4.35;2.45;;;;;;;17.80;100.00;101295.47;6299170;28;20048;-75
2022/08/05 09:44:07;;;;;;;3.70;2.08;;;;;;;17.78;100.00;101294.75;6298528;28;20045;-75
2022/08/05 09:47:11;;;;;;;6.45;3.10;;;;;;;17.81;100.00;101305.16;6298670;28;20447;-75
2022/08/05 09:50:12;;;;;;;8.15;2.85;;;;;;;17.84;100.00;101300.44;6299284;28;20048;-75
2022/08/05 09:53:15;;;;;;;3.67;2.33;;;;;;;17.89;100.00;101311.56;6299322;28;20523;-75
2022/08/05 09:56:24;;;;;;;3.15;2.10;;;;;;;17.97;100.00;101311.00;6298815;28;20408;-75
2022/08/05 09:59:26;;;;;;;6.78;2.88;;;;;;;17.91;100.00;101311.47;6298990;28;20423;-75
2022/08/05 10:02:31;;;;;;;5.60;2.55;;;;;;;17.92;100.00;101321.13;6298998;28;20054;-75
2022/08/05 10:05:33;;;;;;;4.72;2.70;;;;;;;17.88;100.00;101343.59;6298956;28;20052;-76
2022/08/05 10:08:36;;;;;;;5.25;3.08;;;;;;;17.76;100.00;101342.72;6298846;28;20049;-77
2022/08/05 10:11:39;;;;;;;4.70;2.70;;;;;;;17.71;100.00;101336.84;6288958;28;20056;-75
2022/08/05 10:14:40;;;;;;;5.72;2.42;;;;;;;17.67;100.00;101320.28;6273700;28;20488;-75
2022/08/05 10:17:42;;;;;;;3.88;2.22;;;;;;;17.64;100.00;101324.97;6273973;28;20128;-76
2022/08/05 10:20:47;;;;;;;6.82;2.88;;;;;;;17.54;100.00;101326.63;6279371;28;20048;-75
2022/08/05 10:23:50;;;;;;;3.65;2.67;;;;;;;17.50;100.00;101363.19;6300647;28;20048;-76
2022/08/05 10:26:53;;;;;;;7.15;2.67;;;;;;;17.61;100.00;101375.69;6305756;28;20507;-75
2022/08/05 10:29:55;;;;;;;3.78;2.70;;;;;;;17.61;100.00;101365.06;6323363;28;20165;-75
2022/08/05 10:32:58;;;;;;;4.85;2.75;;;;;;;17.58;100.00;101376.78;6309163;28;20483;-75
2022/08/05 10:36:02;;;;;;;5.82;3.50;;;;;;;17.57;100.00;101408.78;6316081;28;20054;-76
2022/08/05 10:39:08;;;;;;;9.55;3.08;;;;;;;17.48;100.00;101418.25;6298098;28;20182;-74
2022/08/05 10:42:15;;;;;;;5.18;3.83;;;;;;;17.45;100.00;101421.16;6298504;28;20049;-77
2022/08/05 10:45:26;;;;;;;6.75;3.40;;;;;;;17.42;100.00;101421.34;6297320;28;20420;-75
2022/08/05 10:48:31;;;;;;;5.93;3.67;;;;;;;17.47;100.00;101421.88;6294511;28;20055;-75
2022/08/05 10:51:43;;;;;;;5.22;3.10;;;;;;;17.51;100.00;101407.41;6307519;28;20071;-73
2022/08/05 10:55:03;;;;;;;4.53;3.38;;;;;;;17.58;100.00;101398.03;6273155;28;20527;-76
2022/08/05 10:58:09;;;;;;;7.50;3.67;;;;;;;17.59;100.00;101393.56;6272661;28;20049;-75
2022/08/05 11:01:10;;;;;;;6.20;3.90;;;;;;;17.65;100.00;101390.47;6272763;28;20528;-76
2022/08/05 11:04:13;;;;;;;5.97;3.67;;;;;;;17.68;100.00;101396.41;6272433;28;20413;-76
2022/08/05 11:07:17;;;;;;;7.50;4.22;;;;;;;17.65;100.00;101406.41;6272751;28;20048;-75
2022/08/05 11:10:23;;;;;;;5.30;3.60;;;;;;;17.54;100.00;101409.84;6278388;28;20052;-75
2022/08/05 11:13:40;;;;;;;4.95;2.90;;;;;;;17.36;100.00;101398.72;6301929;28;20048;-76
2022/08/05 11:16:41;;;;;;;2.80;2.50;;;;;;;17.32;100.00;101412.34;6286496;28;20488;-75
2022/08/05 11:19:47;;;;;;;2.05;1.70;;;;;;;17.37;100.00;101410.22;6301110;28;20044;-76
2022/08/05 11:22:51;;;;;;;2.13;1.60;;;;;;;17.27;100.00;101418.00;6276228;28;20056;-75
2022/08/05 11:26:02;;;;;;;2.97;2.00;;;;;;;17.21;100.00;101427.25;6272160;28;20045;-76
2022/08/05 11:29:05;;;;;;;2.65;1.83;;;;;;;17.12;100.00;101425.25;6272086;28;20519;-75
2022/08/05 11:32:27;;;;;;;3.67;1.70;;;;;;;17.19;100.00;101433.63;6291663;28;20045;-75
2022/08/05 11:35:54;;;;;;;2.63;1.83;;;;;;;17.27;100.00;101436.59;6296273;28;20048;-75
2022/08/05 11:38:56;;;;;;;1.55;1.35;;;;;;;17.24;100.00;101458.03;6296471;28;20112;-75
2022/08/05 11:41:58;;;;;;;1.80;1.17;;;;;;;17.15;100.00;101472.81;6294245;28;20055;-75
2022/08/05 11:45:02;;;;;;;4.10;1.63;;;;;;;17.14;100.00;101488.88;6296483;28;20044;-75
2022/08/05 11:48:08;;;;;;;1.63;1.15;;;;;;;17.16;100.00;101482.47;6287400;28;20182;-77
2022/08/05 11:51:09;;;;;;;3.80;1.50;;;;;;;17.17;100.00;101480.69;6289431;28;20040;-74
2022/08/05 11:54:12;;;;;;;1.65;1.20;;;;;;;17.22;100.00;101491.84;6304162;28;20048;-74
2022/08/05 11:57:15;;;;;;;1.92;1.15;;;;;;;17.35;100.00;101494.47;6297054;28;20499;-75
2022/08/05 12:00:26;;;;;;;1.50;1.15;;;;;;;17.50;100.00;101482.78;6307794;28;20056;-75
2022/08/05 12:03:28;;;;;;;3.85;2.13;;;;;;;17.51;100.00;101476.50;6296472;28;20419;-75
2022/08/05 12:06:35;;;;;;;1.25;0.80;;;;;;;17.39;100.00;101482.69;6302328;28;20041;-76
2022/08/05 12:09:38;;;;;;;0.90;0.82;;;;;;;17.23;100.00;101480.25;6311914;28;20055;-76
2022/08/05 12:12:41;;;;;;;1.20;0.90;;;;;;;17.29;100.00;101471.84;6321244;28;20056;-75
2022/08/05 12:15:43;;;;;;;1.20;1.10;;;;;;;17.37;100.00;101487.25;6321251;28;20044;-75
2022/08/05 12:18:45;;;;;;;3.08;1.10;;;;;;;17.42;100.00;101495.75;6321327;28;20055;-75
2022/08/05 12:21:48;;;;;;;0.95;0.88;;;;;;;17.54;100.00;101499.38;6316846;28;20133;-75
2022/08/05 12:24:51;;;;;;;1.45;1.20;;;;;;;17.63;100.00;101493.41;6301102;28;20060;-75
2022/08/05 12:27:54;;;;;;;3.65;1.00;;;;;;;17.68;100.00;101486.78;6286327;28;20439;-74
2022/08/05 12:30:56;;;;;;;1.83;1.23;;;;;;;17.73;100.00;101497.97;6295078;28;20056;-75
2022/08/05 12:33:58;;;;;;;1.15;1.05;;;;;;;17.83;100.00;101495.50;6308845;28;20060;-75
2022/08/05 12:37:09;;;;;;;1.73;1.30;;;;;;;17.77;100.00;101487.13;6296912;28;20052;-75
2022/08/05 12:40:11;;;;;;;2.25;1.48;;;;;;;17.80;100.00;101487.75;6299648;28;20098;-76
2022/08/05 12:43:14;;;;;;;3.15;1.50;;;;;;;17.86;100.00;101500.63;6296083;28;20052;-75
2022/08/05 12:46:20;;;;;;;2.55;1.42;;;;;;;17.97;100.00;101507.81;6294729;28;20055;-75
2022/08/05 12:49:22;;;;;;;1.13;0.85;;;;;;;18.09;100.00;101503.41;6307489;28;20036;-77
2022/08/05 12:52:23;;;;;;;2.13;1.50;;;;;;;18.08;100.00;101510.56;6321177;28;20055;-77
2022/08/05 12:55:27;;;;;;;2.30;1.25;;;;;;;18.15;100.00;101514.44;6317507;28;20528;-77
2022/08/05 12:58:29;;;;;;;1.85;1.10;;;;;;;18.19;100.00;101521.25;6281305;28;20043;-76
2022/08/05 13:01:31;;;;;;;1.33;1.05;;;;;;;18.30;100.00;101519.59;6294001;28;20412;-76
2022/08/05 13:04:34;;;;;;;1.45;1.08;;;;;;;18.33;100.00;101522.06;6277418;28;20123;-75
2022/08/05 13:07:39;;;;;;;1.95;1.23;;;;;;;18.42;100.00;101524.88;6279218;28;20046;-75
2022/08/05 13:10:42;;;;;;;1.40;1.15;;;;;;;18.59;100.00;101520.13;6292764;28;20037;-75
2022/08/05 13:13:49;;;;;;;1.38;0.95;;;;;;;18.69;100.00;101511.34;6295129;28;20063;-76
2022/08/05 13:16:54;;;;;;;2.83;0.90;;;;;;;18.96;100.00;101494.25;6291415;28;20044;-76
2022/08/05 13:20:06;;;;;;;1.98;0.95;;;;;;;19.17;100.00;101495.25;6313176;28;20063;-76
2022/08/05 13:23:07;;;;;;;1.90;0.90;;;;;;;19.43;100.00;101501.19;6309249;28;20500;-75
2022/08/05 13:26:08;;;;;;;1.10;1.00;;;;;;;19.67;100.00;101510.97;6302608;28;20036;-75
2022/08/05 13:29:11;;;;;;;3.75;1.20;;;;;;;19.61;100.00;101504.28;6309369;28;20044;-74
2022/08/05 13:32:13;;;;;;;1.40;0.90;;;;;;;19.53;100.00;101514.69;6320759;28;20051;-73
2022/08/05 13:35:14;;;;;;;1.00;0.77;;;;;;;19.52;100.00;101511.13;6324952;28;20048;-74
2022/08/05 13:38:16;;;;;;;5.95;1.38;;;;;;;19.83;100.00;101508.75;6304868;28;20048;-76
2022/08/05 13:41:17;;;;;;;1.00;0.90;;;;;;;20.08;100.00;101507.63;6315868;28;20047;-74
2022/08/05 13:44:20;;;;;;;2.28;0.90;;;;;;;20.13;100.00;101510.75;6316123;28;20048;-73
2022/08/05 13:47:22;;;;;;;2.75;1.25;;;;;;;19.96;100.00;101511.28;6307278;28;20136;-72
2022/08/05 13:50:23;;;;;;;1.88;1.30;;;;;;;19.79;100.00;101509.09;6310491;28;20487;-73
2022/08/05 13:53:25;;;;;;;2.90;1.10;;;;;;;19.62;100.00;101515.78;6298830;28;20055;-73
2022/08/05 13:56:26;;;;;;;1.70;1.58;;;;;;;19.60;100.00;101521.25;6298719;28;20048;-73
2022/08/05 13:59:29;;;;;;;2.90;1.08;;;;;;;19.59;100.00;101516.84;6295312;28;20041;-80
2022/08/05 14:02:30;;;;;;;1.38;1.05;;;;;;;19.61;100.00;101527.41;6299364;28;20068;-74
2022/08/05 14:05:32;;;;;;;2.08;0.85;;;;;;;19.61;100.00;101519.41;6298549;28;20044;-73